createdAt,value
2022-09-28T00:00:52.752Z,0.10
2022-09-28T00:03:19.674Z,0.00
2022-09-28T00:05:46.681Z,0.10
2022-09-28T00:08:13.814Z,0.00
2022-09-28T00:10:43.385Z,0.10
2022-09-28T00:13:10.631Z,0.00
2022-09-28T00:15:37.587Z,0.08
2022-09-28T00:18:04.531Z,0.10
2022-09-28T00:20:31.658Z,0.00
2022-09-28T00:22:58.715Z,0.22
2022-09-28T00:25:53.574Z,0.20
2022-09-28T00:28:20.580Z,0.10
2022-09-28T00:30:47.807Z,0.90
2022-09-28T00:33:14.988Z,0.08
2022-09-28T00:35:43.241Z,0.00
2022-09-28T00:38:10.384Z,0.30
2022-09-28T00:40:37.586Z,0.17
2022-09-28T00:43:19.346Z,0.40
2022-09-28T00:45:54.567Z,0.10
2022-09-28T00:48:21.683Z,0.10
2022-09-28T00:50:49.657Z,0.70
2022-09-28T00:53:19.835Z,0.10
2022-09-28T00:55:48.146Z,0.00
2022-09-28T00:58:18.763Z,0.00
2022-09-28T01:00:45.981Z,0.03
2022-09-28T01:03:14.335Z,0.00
2022-09-28T01:05:41.434Z,0.17
2022-09-28T01:08:08.422Z,0.10
2022-09-28T01:10:35.511Z,0.10
2022-09-28T01:13:02.458Z,0.30
2022-09-28T01:15:29.366Z,0.00
2022-09-28T01:18:00.507Z,0.10
2022-09-28T01:20:39.217Z,0.10
2022-09-28T01:23:34.093Z,0.20
2022-09-28T01:26:38.347Z,0.10
2022-09-28T01:29:25.234Z,0.05
2022-09-28T01:32:01.318Z,0.00
2022-09-28T01:34:37.628Z,0.38
2022-09-28T01:39:34.734Z,0.10
2022-09-28T01:42:06.897Z,0.10
2022-09-28T01:44:39.768Z,0.10
2022-09-28T01:47:09.445Z,0.00
2022-09-28T01:49:40.152Z,0.00
2022-09-28T01:52:29.559Z,0.03
2022-09-28T01:55:03.096Z,0.00
2022-09-28T01:57:35.594Z,0.10
2022-09-28T02:00:07.873Z,0.03
2022-09-28T02:02:57.420Z,0.00
2022-09-28T02:05:36.916Z,0.10
2022-09-28T02:08:11.671Z,0.35
2022-09-28T02:13:46.810Z,0.00
2022-09-28T02:16:44.125Z,0.57
2022-09-28T02:19:22.703Z,0.10
2022-09-28T02:22:04.782Z,0.15
2022-09-28T02:24:52.694Z,0.00
2022-09-28T02:27:24.023Z,0.10
2022-09-28T02:29:51.006Z,0.10
2022-09-28T02:32:18.390Z,0.03
2022-09-28T02:34:45.652Z,0.10
2022-09-28T02:37:12.854Z,0.25
2022-09-28T02:39:39.791Z,0.10
2022-09-28T02:42:20.469Z,0.10
2022-09-28T02:45:35.587Z,0.10
2022-09-28T02:48:44.271Z,0.00
2022-09-28T02:51:32.702Z,0.10
2022-09-28T02:54:50.637Z,0.10
2022-09-28T02:57:43.918Z,0.10
2022-09-28T03:00:17.686Z,0.10
2022-09-28T03:03:10.684Z,0.10
2022-09-28T03:05:43.353Z,0.08
2022-09-28T03:08:17.258Z,0.40
2022-09-28T03:10:46.793Z,0.05
2022-09-28T03:13:16.338Z,0.00
2022-09-28T03:15:48.571Z,0.32
2022-09-28T03:18:17.277Z,0.03
2022-09-28T03:20:44.964Z,0.20
2022-09-28T03:23:24.419Z,0.43
2022-09-28T03:25:52.370Z,0.00
2022-09-28T03:28:21.232Z,0.17
2022-09-28T03:30:48.855Z,0.17
2022-09-28T03:33:15.880Z,0.10
2022-09-28T03:35:48.262Z,0.20
2022-09-28T03:38:16.955Z,0.00
2022-09-28T03:40:44.566Z,0.10
2022-09-28T03:43:11.530Z,0.43
2022-09-28T03:45:39.059Z,0.10
2022-09-28T03:48:05.999Z,0.07
2022-09-28T03:50:34.381Z,0.10
2022-09-28T03:53:04.584Z,0.00
2022-09-28T03:55:31.592Z,0.10
2022-09-28T03:57:58.667Z,0.03
2022-09-28T04:00:25.785Z,0.23
2022-09-28T04:02:52.909Z,0.20
2022-09-28T04:05:19.961Z,0.00
2022-09-28T04:07:47.992Z,0.10
2022-09-28T04:10:15.017Z,0.00
2022-09-28T04:12:42.023Z,0.07
2022-09-28T04:15:10.232Z,0.00
2022-09-28T04:17:40.138Z,0.10
2022-09-28T04:20:14.684Z,0.00
2022-09-28T04:22:58.027Z,0.10
2022-09-28T04:25:24.980Z,0.00
2022-09-28T04:28:10.428Z,0.10
2022-09-28T04:30:37.534Z,0.00
2022-09-28T04:33:04.631Z,0.10
2022-09-28T04:35:32.055Z,0.00
2022-09-28T04:37:59.139Z,0.00
2022-09-28T04:40:27.348Z,0.00
2022-09-28T04:42:55.452Z,0.03
2022-09-28T04:45:26.201Z,0.00
2022-09-28T04:47:55.264Z,0.10
2022-09-28T04:50:37.802Z,0.10
2022-09-28T04:53:16.308Z,0.20
2022-09-28T04:55:43.712Z,0.20
2022-09-28T04:58:10.644Z,0.00
2022-09-28T05:00:37.522Z,0.10
2022-09-28T05:03:34.104Z,0.10
2022-09-28T05:06:17.900Z,0.10
2022-09-28T05:08:48.855Z,0.63
2022-09-28T05:11:16.533Z,0.00
2022-09-28T05:13:45.271Z,0.20
2022-09-28T05:16:16.180Z,0.10
2022-09-28T05:19:02.061Z,0.10
2022-09-28T05:21:30.019Z,0.00
2022-09-28T05:23:58.268Z,0.10
2022-09-28T05:26:25.656Z,0.20
2022-09-28T05:28:53.015Z,0.00
2022-09-28T05:32:02.106Z,0.10
2022-09-28T05:35:01.048Z,0.10
2022-09-28T05:37:36.340Z,0.13
2022-09-28T05:40:11.092Z,0.20
2022-09-28T05:42:38.857Z,0.20
2022-09-28T05:45:06.393Z,0.40
2022-09-28T05:47:37.897Z,0.00
2022-09-28T05:50:07.267Z,0.20
2022-09-28T05:52:34.236Z,0.10
2022-09-28T05:55:02.386Z,0.10
2022-09-28T05:57:30.384Z,0.40
2022-09-28T05:59:57.634Z,0.30
2022-09-28T06:02:24.950Z,0.10
2022-09-28T06:04:53.843Z,0.20
2022-09-28T06:07:21.986Z,0.10
2022-09-28T06:09:49.301Z,0.10
2022-09-28T06:12:30.805Z,0.20
2022-09-28T06:15:05.330Z,0.10
2022-09-28T06:17:32.497Z,0.10
2022-09-28T06:20:19.758Z,0.10
2022-09-28T06:22:55.796Z,0.30
2022-09-28T06:25:23.107Z,0.30
2022-09-28T06:28:06.105Z,0.00
2022-09-28T06:30:34.426Z,0.20
2022-09-28T06:33:01.801Z,0.00
2022-09-28T06:35:30.387Z,0.30
2022-09-28T06:37:58.446Z,0.20
2022-09-28T06:40:26.297Z,0.30
2022-09-28T06:42:57.072Z,0.33
2022-09-28T06:45:44.279Z,0.10
2022-09-28T06:49:32.753Z,0.08
2022-09-28T06:52:14.795Z,0.00
2022-09-28T06:55:00.312Z,0.10
2022-09-28T06:57:39.074Z,0.40
2022-09-28T07:00:09.021Z,0.20
2022-09-28T07:02:36.032Z,0.40
2022-09-28T07:05:26.850Z,0.10
2022-09-28T07:08:20.243Z,0.10
2022-09-28T07:11:07.622Z,0.10
2022-09-28T07:16:25.656Z,0.10
2022-09-28T07:19:24.222Z,0.10
2022-09-28T07:24:30.554Z,0.10
2022-09-28T07:27:16.540Z,0.20
2022-09-28T07:29:55.405Z,0.10
2022-09-28T07:35:22.275Z,0.13
2022-09-28T07:38:03.389Z,0.30
2022-09-28T07:40:50.280Z,0.20
2022-09-28T07:43:20.895Z,0.50
2022-09-28T07:45:52.298Z,0.15
2022-09-28T07:48:19.438Z,0.10
2022-09-28T07:50:57.388Z,0.10
2022-09-28T07:53:32.656Z,0.52
2022-09-28T07:56:24.098Z,0.20
2022-09-28T07:59:02.984Z,0.30
2022-09-28T08:01:39.040Z,0.15
2022-09-28T08:04:07.884Z,3.50
2022-09-28T08:06:36.135Z,0.70
2022-09-28T08:09:04.811Z,0.15
2022-09-28T08:11:50.165Z,0.13
2022-09-28T08:14:36.066Z,0.17
2022-09-28T08:17:26.933Z,0.20
2022-09-28T08:20:15.661Z,0.30
2022-09-28T08:22:42.767Z,0.32
2022-09-28T08:25:09.689Z,0.30
2022-09-28T08:27:36.898Z,0.20
2022-09-28T08:30:05.363Z,0.40
2022-09-28T08:32:51.607Z,0.35
2022-09-28T08:35:37.040Z,0.20
2022-09-28T08:38:19.669Z,0.73
2022-09-28T08:41:07.506Z,0.73
2022-09-28T08:43:59.826Z,0.30
2022-09-28T08:46:51.162Z,0.30
2022-09-28T08:49:35.941Z,0.68
2022-09-28T08:52:41.648Z,0.20
2022-09-28T08:55:37.254Z,0.10
2022-09-28T08:58:13.728Z,0.20
2022-09-28T09:00:52.011Z,0.17
2022-09-28T09:03:33.994Z,0.32
2022-09-28T09:06:31.609Z,0.10
2022-09-28T09:09:07.197Z,0.20
2022-09-28T09:11:56.168Z,0.40
2022-09-28T09:14:28.963Z,0.20
2022-09-28T09:17:37.909Z,0.15
2022-09-28T09:20:56.954Z,0.15
2022-09-28T09:23:41.235Z,0.30
2022-09-28T09:26:24.476Z,0.10
2022-09-28T09:29:16.932Z,0.20
2022-09-28T09:32:29.181Z,0.20
2022-09-28T09:35:31.558Z,0.10
2022-09-28T09:38:20.505Z,0.13
2022-09-28T09:41:09.342Z,0.10
2022-09-28T09:44:20.915Z,0.30
2022-09-28T09:47:07.765Z,0.10
2022-09-28T09:49:55.973Z,0.10
2022-09-28T09:52:37.771Z,0.10
2022-09-28T09:55:29.787Z,0.10
2022-09-28T10:01:15.905Z,0.10
2022-09-28T10:04:17.277Z,0.10
2022-09-28T10:06:45.005Z,0.15
2022-09-28T10:09:31.262Z,0.20
2022-09-28T10:12:15.398Z,0.03
2022-09-28T10:14:42.535Z,0.10
2022-09-28T10:17:10.030Z,0.10
2022-09-28T10:19:59.739Z,0.20
2022-09-28T10:22:32.439Z,0.03
2022-09-28T10:25:06.220Z,0.20
2022-09-28T10:27:35.313Z,0.10
2022-09-28T10:30:15.678Z,0.00
2022-09-28T10:32:44.759Z,0.00
2022-09-28T10:35:28.066Z,0.00
2022-09-28T10:37:59.866Z,0.00
2022-09-28T10:40:45.471Z,0.00
2022-09-28T10:43:22.709Z,0.00
2022-09-28T10:46:15.767Z,0.10
2022-09-28T10:48:47.835Z,0.00
2022-09-28T10:51:14.917Z,0.20
2022-09-28T10:54:02.229Z,0.00
2022-09-28T10:56:42.051Z,0.00
2022-09-28T10:59:25.206Z,0.00
2022-09-28T11:01:54.380Z,0.10
2022-09-28T11:04:22.650Z,0.00
2022-09-28T11:06:50.583Z,0.57
2022-09-28T11:09:30.849Z,0.00
2022-09-28T11:12:04.716Z,0.10
2022-09-28T11:14:42.507Z,0.00
2022-09-28T11:17:28.106Z,0.10
2022-09-28T11:19:56.327Z,0.00
2022-09-28T11:22:33.758Z,0.00
2022-09-28T11:25:18.449Z,0.00
2022-09-28T11:27:53.051Z,0.00
2022-09-28T11:30:24.964Z,0.00
2022-09-28T11:33:29.019Z,0.00
2022-09-28T11:36:14.714Z,0.00
2022-09-28T11:38:41.949Z,0.00
2022-09-28T11:41:46.995Z,0.00
2022-09-28T11:44:44.814Z,0.00
2022-09-28T11:47:43.096Z,0.00
2022-09-28T11:50:26.446Z,0.00
2022-09-28T11:53:11.611Z,0.00
2022-09-28T11:55:50.637Z,0.00
2022-09-28T11:58:23.227Z,0.00
2022-09-28T12:01:18.755Z,0.00
2022-09-28T12:04:09.523Z,0.00
2022-09-28T12:06:42.896Z,0.00
2022-09-28T12:09:33.280Z,0.00
2022-09-28T12:12:21.005Z,0.00
2022-09-28T12:14:48.447Z,0.00
2022-09-28T12:17:23.003Z,0.00
2022-09-28T12:20:31.190Z,0.00
2022-09-28T12:23:25.915Z,0.00
2022-09-28T12:26:00.906Z,0.03
2022-09-28T12:28:41.473Z,0.10
2022-09-28T12:31:10.618Z,0.00
2022-09-28T12:33:38.934Z,0.20
2022-09-28T12:36:30.201Z,0.00
2022-09-28T12:39:40.776Z,0.00
2022-09-28T12:42:53.053Z,0.00
2022-09-28T12:46:10.530Z,0.00
2022-09-28T12:49:43.656Z,0.00
2022-09-28T12:52:00.277Z,0.00
2022-09-28T12:55:02.826Z,0.00
2022-09-28T12:57:36.627Z,0.00
2022-09-28T13:00:23.455Z,0.00
2022-09-28T13:05:51.402Z,0.00
2022-09-28T13:08:29.714Z,0.00
2022-09-28T13:11:16.173Z,0.00
2022-09-28T13:14:15.178Z,0.00
2022-09-28T13:17:03.404Z,0.10
2022-09-28T13:19:54.394Z,0.00
2022-09-28T13:22:31.821Z,0.00
2022-09-28T13:25:01.320Z,0.00
2022-09-28T13:27:40.482Z,0.00
2022-09-28T13:30:07.926Z,0.00
2022-09-28T13:32:36.018Z,0.00
2022-09-28T13:35:03.082Z,0.00
2022-09-28T13:37:30.034Z,0.15
2022-09-28T13:39:59.010Z,0.00
2022-09-28T13:42:35.160Z,0.00
2022-09-28T13:45:13.860Z,0.00
2022-09-28T13:48:15.416Z,0.00
2022-09-28T13:50:51.594Z,0.00
2022-09-28T13:56:04.831Z,0.00
2022-09-28T13:58:36.492Z,0.15
2022-09-28T14:01:15.599Z,0.00
2022-09-28T14:04:12.933Z,0.00
2022-09-28T14:09:34.064Z,0.00
2022-09-28T14:12:01.922Z,0.00
2022-09-28T14:14:49.149Z,0.05
2022-09-28T14:17:22.181Z,0.00
2022-09-28T14:20:28.054Z,0.00
2022-09-28T14:23:21.322Z,0.00
2022-09-28T14:26:06.957Z,0.10
2022-09-28T14:28:56.947Z,0.00
2022-09-28T14:31:27.788Z,0.05
2022-09-28T14:33:57.566Z,0.17
2022-09-28T14:37:09.447Z,0.00
2022-09-28T14:39:55.615Z,0.00
2022-09-28T14:42:24.227Z,0.00
2022-09-28T14:45:06.394Z,0.00
2022-09-28T14:47:37.679Z,0.00
2022-09-28T14:50:23.318Z,0.00
2022-09-28T14:53:06.332Z,0.00
2022-09-28T14:55:48.025Z,0.00
2022-09-28T14:58:18.967Z,0.00
2022-09-28T15:00:45.887Z,0.00
2022-09-28T15:03:12.810Z,0.00
2022-09-28T15:05:44.156Z,0.00
2022-09-28T15:08:12.004Z,0.00
2022-09-28T15:10:46.464Z,0.00
2022-09-28T15:13:30.191Z,0.00
2022-09-28T15:16:07.222Z,0.00
2022-09-28T15:19:03.390Z,0.30
2022-09-28T15:21:35.839Z,0.00
2022-09-28T15:24:02.890Z,0.00
2022-09-28T15:26:31.812Z,0.20
2022-09-28T15:28:59.372Z,0.00
2022-09-28T15:31:27.330Z,0.00
2022-09-28T15:34:12.712Z,0.00
2022-09-28T15:36:40.419Z,0.00
2022-09-28T15:39:12.414Z,0.00
2022-09-28T15:41:40.083Z,0.00
2022-09-28T15:44:13.280Z,0.00
2022-09-28T15:46:41.770Z,0.00
2022-09-28T15:49:21.041Z,0.00
2022-09-28T15:52:36.110Z,0.00
2022-09-28T15:55:06.292Z,0.08
2022-09-28T15:57:38.064Z,0.00
2022-09-28T16:00:07.131Z,0.00
2022-09-28T16:02:38.709Z,0.10
2022-09-28T16:05:35.828Z,0.10
2022-09-28T16:08:06.034Z,0.00
2022-09-28T16:10:34.042Z,0.00
2022-09-28T16:13:17.098Z,0.00
2022-09-28T16:15:44.092Z,0.00
2022-09-28T16:18:15.538Z,0.00
2022-09-28T16:20:42.658Z,0.00
2022-09-28T16:23:18.585Z,0.00
2022-09-28T16:25:54.733Z,0.00
2022-09-28T16:28:34.742Z,0.00
2022-09-28T16:31:07.635Z,0.00
2022-09-28T16:33:46.731Z,0.00
2022-09-28T16:36:15.435Z,0.00
2022-09-28T16:38:45.132Z,0.00
2022-09-28T16:41:12.182Z,0.00
2022-09-28T16:43:39.202Z,0.00
2022-09-28T16:46:09.365Z,0.00
2022-09-28T16:48:56.750Z,0.13
2022-09-28T16:51:24.736Z,0.05
2022-09-28T16:54:10.099Z,0.00
2022-09-28T16:56:37.066Z,0.00
2022-09-28T16:59:04.477Z,0.00
2022-09-28T17:01:31.644Z,0.08
2022-09-28T17:03:58.775Z,0.00
2022-09-28T17:06:25.816Z,0.00
2022-09-28T17:08:58.379Z,0.20
2022-09-28T17:11:25.424Z,0.00
2022-09-28T17:13:56.636Z,0.00
2022-09-28T17:16:49.405Z,0.00
2022-09-28T17:19:25.524Z,0.00
2022-09-28T17:21:52.800Z,0.00
2022-09-28T17:24:20.095Z,0.00
2022-09-28T17:26:49.786Z,0.00
2022-09-28T17:29:16.851Z,0.00
2022-09-28T17:31:44.205Z,0.00
2022-09-28T17:34:12.059Z,0.00
2022-09-28T17:36:40.622Z,0.00
2022-09-28T17:39:13.492Z,0.00
2022-09-28T17:41:40.934Z,0.00
2022-09-28T17:44:08.100Z,0.00
2022-09-28T17:46:37.216Z,0.00
2022-09-28T17:49:06.150Z,0.03
2022-09-28T17:51:34.996Z,0.00
2022-09-28T17:54:02.529Z,0.00
2022-09-28T17:56:32.189Z,0.00
2022-09-28T17:59:00.993Z,0.00
2022-09-28T18:01:33.763Z,0.10
2022-09-28T18:04:01.953Z,0.10
2022-09-28T18:06:29.096Z,0.10
2022-09-28T18:08:56.206Z,0.03
2022-09-28T18:11:23.372Z,0.00
2022-09-28T18:13:50.317Z,0.45
2022-09-28T18:16:17.471Z,0.50
2022-09-28T18:18:44.508Z,0.90
2022-09-28T18:21:11.495Z,2.28
2022-09-28T18:23:38.709Z,1.65
2022-09-28T18:26:11.279Z,0.73
2022-09-28T18:28:38.550Z,0.77
2022-09-28T18:31:09.530Z,0.22
2022-09-28T18:33:52.120Z,0.10
2022-09-28T18:36:19.067Z,0.10
2022-09-28T18:38:46.051Z,0.10
2022-09-28T18:41:17.271Z,0.10
2022-09-28T18:44:09.785Z,0.32
2022-09-28T18:46:37.182Z,0.13
2022-09-28T18:49:04.546Z,0.10
2022-09-28T18:51:31.542Z,0.10
2022-09-28T18:53:58.652Z,0.80
2022-09-28T18:56:26.759Z,0.50
2022-09-28T18:58:53.899Z,0.50
2022-09-28T19:01:30.463Z,1.27
2022-09-28T19:04:05.634Z,8.80
2022-09-28T19:06:32.767Z,8.40
2022-09-28T19:08:59.949Z,1.83
2022-09-28T19:11:27.349Z,0.88
2022-09-28T19:13:54.784Z,0.68
2022-09-28T19:16:26.343Z,1.05
2022-09-28T19:18:53.698Z,2.63
2022-09-28T19:21:20.905Z,5.60
2022-09-28T19:23:49.978Z,3.00
2022-09-28T19:26:20.373Z,3.63
2022-09-28T19:28:47.804Z,1.73
2022-09-28T19:31:14.762Z,1.00
2022-09-28T19:33:41.833Z,0.88
2022-09-28T19:36:12.149Z,1.88
2022-09-28T19:38:39.452Z,5.78
2022-09-28T19:41:34.665Z,4.85
2022-09-28T19:44:04.067Z,9.68
2022-09-28T19:46:33.349Z,17.20
2022-09-28T19:49:01.948Z,8.05
2022-09-28T19:51:29.044Z,7.20
2022-09-28T19:53:56.281Z,4.22
2022-09-28T19:56:29.159Z,5.03
2022-09-28T19:58:56.176Z,5.70
2022-09-28T20:01:23.324Z,7.18
2022-09-28T20:03:50.374Z,4.47
2022-09-28T20:06:17.622Z,2.88
2022-09-28T20:08:44.884Z,4.63
2022-09-28T20:11:11.853Z,1.92
2022-09-28T20:13:39.401Z,2.20
2022-09-28T20:16:07.395Z,2.80
2022-09-28T20:18:35.325Z,1.70
2022-09-28T20:21:06.676Z,1.02
2022-09-28T20:23:36.105Z,1.83
2022-09-28T20:26:04.704Z,1.35
2022-09-28T20:28:31.888Z,1.08
2022-09-28T20:31:06.353Z,1.60
2022-09-28T20:33:33.885Z,2.03
2022-09-28T20:36:06.129Z,1.90
2022-09-28T20:38:33.241Z,1.17
2022-09-28T20:41:03.382Z,0.98
2022-09-28T20:43:31.342Z,1.13
2022-09-28T20:45:58.623Z,1.00
2022-09-28T20:48:26.128Z,0.90
2022-09-28T20:51:09.730Z,0.80
2022-09-28T20:53:37.425Z,0.70
2022-09-28T20:56:11.217Z,1.10
2022-09-28T20:58:41.415Z,1.00
2022-09-28T21:01:12.403Z,0.68
2022-09-28T21:03:39.545Z,0.63
2022-09-28T21:06:12.475Z,0.77
2022-09-28T21:08:43.147Z,0.80
2022-09-28T21:11:11.650Z,0.65
2022-09-28T21:13:41.566Z,0.82
2022-09-28T21:16:09.917Z,0.60
2022-09-28T21:18:37.744Z,0.85
2022-09-28T21:21:12.609Z,0.45
2022-09-28T21:23:39.858Z,1.10
2022-09-28T21:26:08.474Z,0.88
2022-09-28T21:28:35.865Z,0.90
2022-09-28T21:31:09.520Z,0.50
2022-09-28T21:33:36.702Z,1.00
2022-09-28T21:36:04.663Z,0.80
2022-09-28T21:38:31.737Z,0.85
2022-09-28T21:40:59.374Z,0.80
2022-09-28T21:43:27.343Z,0.47
2022-09-28T21:45:54.745Z,1.35
2022-09-28T21:48:22.618Z,0.80
2022-09-28T21:51:03.656Z,0.85
2022-09-28T21:53:32.213Z,0.60
2022-09-28T21:56:00.084Z,0.82
2022-09-28T21:58:28.703Z,0.80
2022-09-28T22:01:17.951Z,0.88
2022-09-28T22:03:49.489Z,0.88
2022-09-28T22:06:18.345Z,0.70
2022-09-28T22:08:45.974Z,0.73
2022-09-28T22:11:15.429Z,0.30
2022-09-28T22:13:43.955Z,0.40
2022-09-28T22:16:11.249Z,0.60
2022-09-28T22:18:38.313Z,0.82
2022-09-28T22:21:16.486Z,0.47
2022-09-28T22:23:43.470Z,0.63
2022-09-28T22:26:11.503Z,0.50
2022-09-28T22:28:38.941Z,0.70
2022-09-28T22:31:08.670Z,0.43
2022-09-28T22:33:35.762Z,0.50
2022-09-28T22:36:02.726Z,0.50
2022-09-28T22:38:31.289Z,0.52
2022-09-28T22:40:58.385Z,0.32
2022-09-28T22:43:26.156Z,0.30
2022-09-28T22:46:06.642Z,0.30
2022-09-28T22:48:34.726Z,0.50
2022-09-28T22:51:02.212Z,0.45
2022-09-28T22:53:29.244Z,0.50
2022-09-28T22:55:57.213Z,0.65
2022-09-28T22:58:24.305Z,0.47
2022-09-28T23:00:51.251Z,0.40
2022-09-28T23:03:18.370Z,0.77
2022-09-28T23:05:55.194Z,0.43
2022-09-28T23:08:22.541Z,0.50
2022-09-28T23:10:49.880Z,0.55
2022-09-28T23:13:16.926Z,0.55
2022-09-28T23:15:43.940Z,0.28
2022-09-28T23:18:10.898Z,0.57
2022-09-28T23:20:37.940Z,0.40
2022-09-28T23:23:04.910Z,0.57
2022-09-28T23:25:31.819Z,0.50
2022-09-28T23:27:58.853Z,0.50
2022-09-28T23:30:25.875Z,0.50
2022-09-28T23:32:53.442Z,0.73
2022-09-28T23:35:20.483Z,0.52
2022-09-28T23:37:50.930Z,0.30
2022-09-28T23:40:18.285Z,0.20
2022-09-28T23:42:45.280Z,0.55
2022-09-28T23:45:12.506Z,0.50
2022-09-28T23:47:39.529Z,0.38
2022-09-28T23:50:06.973Z,0.40
2022-09-28T23:52:35.289Z,0.33
2022-09-28T23:55:02.279Z,0.30
2022-09-28T23:57:29.214Z,0.28
2022-09-28T23:59:56.263Z,0.40
